Time;durP1;ratioP1;P1;durP2;ratioP2;P2;SDS_P1;SDS_P2;PMS_P1;PMS_P2;Temp;Humidity;BMP_temperature;BMP_pressure;BME280_temperature;BME280_humidity;BME280_pressure;Samples;Min_cycle;Max_cycle;Signal;HPM_P1;HPM_P2
2024/01/02 00:02:23;;;;;;;8.13;1.87;;;7.60;99.90;;;;;;4952022;28;20507;-67
2024/01/02 00:04:51;;;;;;;10.37;1.13;;;7.60;99.90;;;;;;4952546;28;20863;-68
2024/01/02 00:07:19;;;;;;;7.90;1.10;;;7.50;99.90;;;;;;4964361;28;21214;-68
2024/01/02 00:09:47;;;;;;;8.80;1.07;;;7.50;99.90;;;;;;4958135;28;21219;-68
2024/01/02 00:12:16;;;;;;;8.77;1.00;;;7.50;99.90;;;;;;4960457;28;20970;-69
2024/01/02 00:14:44;;;;;;;8.10;1.47;;;7.60;99.90;;;;;;4959161;28;20442;-69
2024/01/02 00:17:12;;;;;;;7.93;1.03;;;7.60;99.90;;;;;;4957488;28;20448;-68
2024/01/02 00:19:40;;;;;;;8.67;1.00;;;7.60;99.90;;;;;;4952150;28;20440;-68
2024/01/02 00:22:08;;;;;;;8.87;1.10;;;7.60;99.90;;;;;;4953904;28;20932;-69
2024/01/02 00:24:35;;;;;;;8.00;0.97;;;7.60;99.90;;;;;;4956063;28;21221;-68
2024/01/02 00:27:03;;;;;;;6.20;0.80;;;7.60;99.90;;;;;;4959282;28;20448;-68
2024/01/02 00:29:33;;;;;;;9.67;1.20;;;7.60;99.90;;;;;;4957347;28;21054;-68
2024/01/02 00:32:01;;;;;;;6.77;0.80;;;7.50;99.90;;;;;;4962594;28;20453;-68
2024/01/02 00:34:29;;;;;;;7.10;1.10;;;7.50;99.90;;;;;;4957703;28;20448;-68
2024/01/02 00:36:57;;;;;;;10.70;1.73;;;7.50;99.90;;;;;;4963524;28;21016;-68
2024/01/02 00:39:25;;;;;;;8.70;1.77;;;7.40;99.90;;;;;;4960969;28;20904;-66
2024/01/02 00:41:53;;;;;;;6.43;0.70;;;7.50;99.90;;;;;;4953413;28;20591;-68
2024/01/02 00:44:21;;;;;;;9.93;0.80;;;7.50;99.90;;;;;;4960740;28;21020;-68
2024/01/02 00:46:50;;;;;;;7.60;1.20;;;7.50;99.90;;;;;;4956418;28;20888;-68
2024/01/02 00:49:19;;;;;;;7.60;1.00;;;7.50;99.90;;;;;;4956598;28;20900;-68
2024/01/02 00:51:47;;;;;;;7.00;1.00;;;7.40;99.90;;;;;;4957626;28;21058;-69
2024/01/02 00:54:15;;;;;;;7.03;1.13;;;7.40;99.90;;;;;;4962695;28;20451;-69
2024/01/02 00:56:43;;;;;;;8.53;1.20;;;7.40;99.90;;;;;;4961098;28;20471;-69
2024/01/02 00:59:12;;;;;;;7.77;1.00;;;7.50;99.90;;;;;;4962931;28;21098;-68
2024/01/02 01:01:40;;;;;;;7.33;0.70;;;7.50;99.90;;;;;;4955226;28;20464;-69
2024/01/02 01:04:10;;;;;;;8.70;1.23;;;7.50;99.90;;;;;;4957672;28;20525;-70
2024/01/02 01:06:38;;;;;;;7.33;1.00;;;7.50;99.90;;;;;;4952409;28;20555;-69
2024/01/02 01:09:06;;;;;;;6.30;0.77;;;7.50;99.90;;;;;;4953852;28;20443;-68
2024/01/02 01:11:33;;;;;;;6.37;0.70;;;7.50;99.90;;;;;;4953089;28;20513;-69
2024/01/02 01:14:01;;;;;;;6.60;0.63;;;7.50;99.90;;;;;;4962389;28;20926;-69
2024/01/02 01:16:30;;;;;;;7.30;0.80;;;7.50;99.90;;;;;;4961621;28;20446;-69
2024/01/02 01:18:58;;;;;;;11.10;1.57;;;7.50;99.90;;;;;;4960888;28;20476;-68
2024/01/02 01:21:27;;;;;;;7.57;0.60;;;7.50;99.90;;;;;;4962665;28;20466;-70
2024/01/02 01:23:55;;;;;;;7.07;0.93;;;7.50;99.90;;;;;;4962684;28;20594;-69
2024/01/02 01:26:23;;;;;;;6.20;0.80;;;7.60;99.90;;;;;;4962951;28;20475;-69
2024/01/02 01:28:51;;;;;;;6.93;0.70;;;7.60;99.90;;;;;;4956109;28;20452;-70
2024/01/02 01:31:19;;;;;;;5.70;0.63;;;7.60;99.90;;;;;;4960510;28;21043;-70
2024/01/02 01:33:47;;;;;;;10.33;1.13;;;7.60;99.90;;;;;;4960724;28;20708;-70
2024/01/02 01:36:18;;;;;;;6.87;0.80;;;7.60;99.90;;;;;;4961269;28;20456;-71
2024/01/02 01:38:48;;;;;;;7.90;0.93;;;7.60;99.90;;;;;;4956803;28;20980;-70
2024/01/02 01:41:16;;;;;;;6.53;0.60;;;7.60;99.90;;;;;;4966222;28;20460;-71
2024/01/02 01:43:43;;;;;;;7.07;0.80;;;7.70;99.90;;;;;;4955978;28;20501;-71
2024/01/02 01:46:12;;;;;;;8.37;1.00;;;7.60;99.90;;;;;;4964837;28;20937;-71
2024/01/02 01:48:40;;;;;;;6.20;0.80;;;7.60;99.90;;;;;;4959920;28;20873;-71
2024/01/02 01:51:09;;;;;;;7.57;0.80;;;7.60;99.90;;;;;;4956023;28;20994;-71
2024/01/02 01:53:38;;;;;;;6.60;0.80;;;7.60;99.90;;;;;;4965842;28;20462;-71
2024/01/02 01:56:08;;;;;;;7.10;1.00;;;7.60;99.90;;;;;;4955919;28;20541;-71
2024/01/02 01:58:36;;;;;;;7.37;0.70;;;7.60;99.90;;;;;;4959801;28;20579;-71
2024/01/02 02:01:04;;;;;;;6.97;0.90;;;7.60;99.90;;;;;;4964536;28;20531;-71
2024/01/02 02:03:34;;;;;;;6.10;0.60;;;7.60;99.90;;;;;;4952537;28;20516;-71
2024/01/02 02:06:05;;;;;;;7.03;0.83;;;7.60;99.90;;;;;;4959359;28;20483;-71
2024/01/02 02:08:34;;;;;;;8.57;0.77;;;7.60;99.90;;;;;;4962384;28;20456;-71
2024/01/02 02:11:03;;;;;;;6.90;0.83;;;7.60;99.90;;;;;;4962385;28;20877;-72
2024/01/02 02:13:32;;;;;;;7.43;0.83;;;7.60;99.90;;;;;;4961468;28;20445;-69
2024/01/02 02:16:02;;;;;;;6.50;0.80;;;7.60;99.90;;;;;;4956316;28;20489;-71
2024/01/02 02:18:30;;;;;;;7.80;0.97;;;7.60;99.90;;;;;;4963181;28;20889;-71
2024/01/02 02:20:58;;;;;;;7.00;0.90;;;7.60;99.90;;;;;;4959146;28;20483;-72
2024/01/02 02:23:27;;;;;;;8.00;1.10;;;7.60;99.90;;;;;;4963390;28;20583;-71
2024/01/02 02:25:54;;;;;;;6.20;0.67;;;7.70;99.90;;;;;;4963469;28;20467;-71
2024/01/02 02:28:22;;;;;;;6.07;0.80;;;7.70;99.90;;;;;;4963060;28;20526;-71
2024/01/02 02:30:50;;;;;;;6.77;0.70;;;7.70;99.90;;;;;;4967788;28;20514;-72
2024/01/02 02:33:18;;;;;;;8.20;0.80;;;7.70;99.90;;;;;;4960027;28;20465;-70
2024/01/02 02:35:46;;;;;;;6.67;0.70;;;7.60;99.90;;;;;;4959075;28;20492;-71
2024/01/02 02:38:14;;;;;;;6.43;0.60;;;7.60;99.90;;;;;;4953772;28;20530;-71
2024/01/02 02:40:44;;;;;;;6.20;0.90;;;7.60;99.90;;;;;;4964367;28;20495;-72
2024/01/02 02:43:12;;;;;;;6.83;0.50;;;7.60;99.90;;;;;;4966863;28;20490;-72
2024/01/02 02:45:40;;;;;;;7.70;0.77;;;7.60;99.90;;;;;;4970620;28;20454;-71
2024/01/02 02:48:08;;;;;;;7.60;0.73;;;7.70;99.90;;;;;;4962739;28;20536;-71
2024/01/02 02:50:36;;;;;;;5.90;0.60;;;7.60;99.90;;;;;;4957811;28;20456;-72
2024/01/02 02:53:04;;;;;;;6.37;0.63;;;7.60;99.90;;;;;;4962779;28;20452;-71
2024/01/02 02:55:33;;;;;;;7.00;0.80;;;7.60;99.90;;;;;;4958945;28;20799;-71
2024/01/02 02:58:02;;;;;;;6.00;0.60;;;7.60;99.90;;;;;;4962730;28;20456;-71
2024/01/02 03:00:33;;;;;;;7.10;0.70;;;7.60;99.90;;;;;;4957789;28;20452;-70
2024/01/02 03:03:02;;;;;;;6.00;0.70;;;7.60;99.90;;;;;;4964221;28;20479;-70
2024/01/02 03:05:30;;;;;;;7.70;0.83;;;7.60;99.90;;;;;;4964147;28;20454;-71
2024/01/02 03:07:58;;;;;;;7.80;0.80;;;7.60;99.90;;;;;;4968477;28;20458;-70
2024/01/02 03:10:27;;;;;;;8.70;0.93;;;7.60;99.90;;;;;;4966682;28;20474;-71
2024/01/02 03:12:55;;;;;;;6.00;0.60;;;7.60;99.90;;;;;;4956529;28;20488;-71
2024/01/02 03:15:24;;;;;;;7.27;0.83;;;7.60;99.90;;;;;;4959698;28;20447;-71
2024/01/02 03:17:52;;;;;;;6.00;0.50;;;7.70;99.90;;;;;;4960715;28;20443;-71
2024/01/02 03:20:20;;;;;;;6.00;0.60;;;7.60;99.90;;;;;;4956383;28;20475;-71
2024/01/02 03:22:48;;;;;;;6.73;0.70;;;7.70;99.90;;;;;;4960908;28;20534;-71
2024/01/02 03:25:16;;;;;;;7.23;0.83;;;7.60;99.90;;;;;;4956411;28;20563;-70
2024/01/02 03:27:44;;;;;;;6.20;1.00;;;7.50;99.90;;;;;;4955890;28;21149;-71
2024/01/02 03:30:12;;;;;;;7.33;0.60;;;7.50;99.90;;;;;;4958736;28;20476;-71
2024/01/02 03:32:42;;;;;;;6.83;0.70;;;7.50;99.90;;;;;;4959564;28;20852;-71
2024/01/02 03:35:11;;;;;;;6.53;0.60;;;7.40;99.90;;;;;;4958360;28;20462;-71
2024/01/02 03:37:40;;;;;;;6.80;0.60;;;7.40;99.90;;;;;;4957143;28;20583;-71
2024/01/02 03:40:09;;;;;;;6.03;0.70;;;7.30;99.90;;;;;;4961607;28;20466;-72
2024/01/02 03:42:37;;;;;;;6.53;0.60;;;7.20;99.90;;;;;;4964548;28;20540;-71
2024/01/02 03:45:05;;;;;;;6.90;0.70;;;7.20;99.90;;;;;;4961148;28;20572;-71
2024/01/02 03:47:33;;;;;;;7.57;0.70;;;7.10;99.90;;;;;;4952715;28;20468;-70
2024/01/02 03:50:03;;;;;;;6.00;0.50;;;7.10;99.90;;;;;;4960639;28;20526;-71
2024/01/02 03:52:31;;;;;;;7.17;0.60;;;7.10;99.90;;;;;;4958992;28;20548;-71
2024/01/02 03:54:59;;;;;;;6.80;0.87;;;7.10;99.90;;;;;;4960916;28;20475;-72
2024/01/02 03:57:27;;;;;;;6.30;0.73;;;7.00;99.90;;;;;;4954360;28;21249;-71
2024/01/02 03:59:55;;;;;;;6.10;0.60;;;6.90;99.90;;;;;;4961207;28;20456;-70
2024/01/02 04:02:23;;;;;;;6.10;0.60;;;7.00;99.90;;;;;;4958138;28;20467;-71
2024/01/02 04:04:52;;;;;;;6.17;0.50;;;7.00;99.90;;;;;;4963929;28;20487;-71
2024/01/02 04:07:22;;;;;;;5.90;0.53;;;6.90;99.90;;;;;;4961692;28;20440;-71
2024/01/02 04:09:51;;;;;;;6.03;0.50;;;7.00;99.90;;;;;;4961690;28;20473;-71
2024/01/02 04:12:19;;;;;;;6.00;0.60;;;6.90;99.90;;;;;;4958788;28;20579;-71
2024/01/02 04:14:47;;;;;;;6.60;0.50;;;6.90;99.90;;;;;;4961108;28;20957;-71
2024/01/02 04:17:15;;;;;;;5.67;0.40;;;6.90;99.90;;;;;;4958685;28;20468;-71
2024/01/02 04:19:43;;;;;;;6.10;0.60;;;6.90;99.90;;;;;;4955259;28;20460;-72
2024/01/02 04:22:11;;;;;;;5.80;0.40;;;6.80;99.90;;;;;;4955141;28;20559;-71
2024/01/02 04:24:40;;;;;;;5.77;0.40;;;6.80;99.90;;;;;;4958063;28;20485;-71
2024/01/02 04:27:08;;;;;;;5.80;0.50;;;6.80;99.90;;;;;;4960920;28;20444;-71
2024/01/02 04:29:36;;;;;;;6.17;0.50;;;6.70;99.90;;;;;;4957989;28;20481;-71
2024/01/02 04:32:06;;;;;;;6.40;0.40;;;6.80;99.90;;;;;;4963634;28;20460;-70
2024/01/02 04:34:34;;;;;;;5.97;0.50;;;6.80;99.90;;;;;;4941380;28;20466;-71
2024/01/02 04:37:04;;;;;;;5.73;0.33;;;6.70;99.90;;;;;;4960583;28;20551;-71
2024/01/02 04:39:32;;;;;;;8.40;0.60;;;6.70;99.90;;;;;;4961305;28;20478;-71
2024/01/02 04:42:02;;;;;;;7.70;0.40;;;6.70;99.90;;;;;;4955208;28;20946;-71
2024/01/02 04:44:30;;;;;;;5.90;0.50;;;6.60;99.90;;;;;;4968374;28;20481;-71
2024/01/02 04:46:58;;;;;;;6.00;0.43;;;6.70;99.90;;;;;;4967774;28;20517;-71
2024/01/02 04:49:27;;;;;;;6.53;0.50;;;6.60;99.90;;;;;;4980295;28;20446;-71
2024/01/02 04:51:55;;;;;;;6.80;0.50;;;6.60;99.90;;;;;;4959067;28;20479;-71
2024/01/02 04:54:23;;;;;;;7.40;0.53;;;6.60;99.90;;;;;;4960484;28;20460;-71
2024/01/02 04:56:51;;;;;;;7.23;0.50;;;6.60;99.90;;;;;;4957816;28;20552;-71
2024/01/02 04:59:20;;;;;;;8.53;0.60;;;6.60;99.90;;;;;;4959910;28;20519;-71
2024/01/02 05:01:49;;;;;;;7.90;0.40;;;6.60;99.90;;;;;;4955299;28;20464;-71
2024/01/02 05:04:17;;;;;;;6.77;0.60;;;6.60;99.90;;;;;;4953278;28;20812;-71
2024/01/02 05:06:46;;;;;;;6.10;0.60;;;6.60;99.90;;;;;;4959415;28;20438;-71
2024/01/02 05:09:14;;;;;;;6.27;0.50;;;6.60;99.90;;;;;;4959663;28;20547;-71
2024/01/02 05:11:42;;;;;;;6.60;0.43;;;6.50;99.90;;;;;;4961310;28;20892;-71
2024/01/02 05:14:10;;;;;;;6.03;0.43;;;6.50;99.90;;;;;;4961347;28;20478;-71
2024/01/02 05:16:39;;;;;;;5.97;0.50;;;6.60;99.90;;;;;;4962431;28;20526;-71
2024/01/02 05:19:07;;;;;;;5.80;0.40;;;6.50;99.90;;;;;;4966867;28;20455;-71
2024/01/02 05:21:35;;;;;;;6.87;0.40;;;6.60;99.90;;;;;;4962549;28;20612;-71
2024/01/02 05:24:03;;;;;;;5.90;0.50;;;6.60;99.90;;;;;;4956911;28;20462;-70
2024/01/02 05:26:31;;;;;;;6.40;0.70;;;6.50;99.90;;;;;;4961338;28;20491;-70
2024/01/02 05:28:59;;;;;;;6.23;0.53;;;6.60;99.90;;;;;;4958502;28;20541;-71
2024/01/02 05:31:27;;;;;;;6.40;1.17;;;6.50;99.90;;;;;;4959560;28;20471;-72
2024/01/02 05:33:56;;;;;;;6.50;0.50;;;6.50;99.90;;;;;;4960249;28;20524;-71
2024/01/02 05:36:24;;;;;;;6.20;0.60;;;6.50;99.90;;;;;;4958105;28;20554;-71
2024/01/02 05:38:52;;;;;;;6.90;0.60;;;6.50;99.90;;;;;;4961655;28;20462;-71
2024/01/02 05:41:20;;;;;;;6.00;0.43;;;6.60;99.90;;;;;;4961970;28;20561;-70
2024/01/02 05:43:48;;;;;;;6.20;0.50;;;6.60;99.90;;;;;;4960732;28;20453;-71
2024/01/02 05:46:16;;;;;;;6.23;0.50;;;6.60;99.90;;;;;;4961888;28;20483;-70
2024/01/02 05:48:44;;;;;;;7.47;0.90;;;6.60;99.90;;;;;;4959099;28;20457;-71
2024/01/02 05:51:14;;;;;;;6.47;0.47;;;6.60;99.90;;;;;;4960026;28;20477;-71
2024/01/02 05:53:42;;;;;;;5.87;0.40;;;6.60;99.90;;;;;;4962859;28;21130;-70
2024/01/02 05:56:11;;;;;;;6.10;0.70;;;6.60;99.90;;;;;;4963647;28;20469;-71
2024/01/02 05:58:39;;;;;;;6.70;0.60;;;6.60;99.90;;;;;;4956781;28;21041;-71
2024/01/02 06:01:07;;;;;;;6.10;0.50;;;6.70;99.90;;;;;;4959181;28;20471;-71
2024/01/02 06:03:35;;;;;;;6.00;0.70;;;6.60;99.90;;;;;;4962309;28;20978;-71
2024/01/02 06:06:04;;;;;;;7.30;0.73;;;6.60;99.90;;;;;;4963153;28;21096;-71
2024/01/02 06:08:34;;;;;;;6.40;0.67;;;6.60;99.90;;;;;;4958483;28;20465;-71
2024/01/02 06:11:02;;;;;;;5.87;0.47;;;6.60;99.90;;;;;;4965877;28;20474;-71
2024/01/02 06:13:30;;;;;;;5.90;0.50;;;6.70;99.90;;;;;;4960525;28;20467;-71
2024/01/02 06:15:59;;;;;;;6.00;0.50;;;6.70;99.90;;;;;;4959542;28;20452;-71
2024/01/02 06:18:27;;;;;;;6.03;0.60;;;6.60;99.90;;;;;;4955955;28;20485;-71
2024/01/02 06:20:57;;;;;;;6.30;0.50;;;6.60;99.90;;;;;;4960129;28;20475;-71
2024/01/02 06:23:26;;;;;;;5.90;0.50;;;6.70;99.90;;;;;;4962293;28;20458;-70
2024/01/02 06:25:56;;;;;;;5.90;0.40;;;6.70;99.90;;;;;;4960242;28;20510;-70
2024/01/02 06:28:25;;;;;;;6.53;0.90;;;6.70;99.90;;;;;;4964708;28;20515;-70
2024/01/02 06:30:53;;;;;;;6.10;0.70;;;6.70;99.90;;;;;;4964793;28;20478;-70
2024/01/02 06:33:22;;;;;;;6.07;0.50;;;6.70;99.90;;;;;;4960606;28;20459;-71
2024/01/02 06:35:50;;;;;;;6.20;0.70;;;6.70;99.90;;;;;;4966808;28;20454;-70
2024/01/02 06:38:18;;;;;;;6.43;0.70;;;6.70;99.90;;;;;;4956166;28;20476;-70
2024/01/02 06:40:46;;;;;;;6.20;0.70;;;6.70;99.90;;;;;;4967555;28;20497;-70
2024/01/02 06:43:15;;;;;;;7.00;0.60;;;6.80;99.90;;;;;;4964569;28;20810;-70
2024/01/02 06:45:44;;;;;;;5.80;0.50;;;6.80;99.90;;;;;;4956129;28;20486;-69
2024/01/02 06:48:12;;;;;;;5.93;0.47;;;6.80;99.90;;;;;;4960578;28;20479;-71
2024/01/02 06:50:40;;;;;;;5.90;0.50;;;6.80;99.90;;;;;;4960536;28;20533;-71
2024/01/02 06:53:08;;;;;;;6.03;0.40;;;6.80;99.90;;;;;;4960221;28;20557;-69
2024/01/02 06:55:36;;;;;;;6.70;0.80;;;6.80;99.90;;;;;;4963937;28;20910;-71
2024/01/02 06:58:05;;;;;;;6.30;0.70;;;6.80;99.90;;;;;;4961410;28;20817;-71
2024/01/02 07:00:35;;;;;;;6.60;0.70;;;6.90;99.90;;;;;;4953734;28;20543;-71
2024/01/02 07:03:03;;;;;;;6.20;0.60;;;6.90;99.90;;;;;;4961144;28;20443;-71
2024/01/02 07:05:31;;;;;;;6.23;0.53;;;6.90;99.90;;;;;;4961077;28;20491;-71
2024/01/02 07:08:00;;;;;;;6.00;0.50;;;7.00;99.90;;;;;;4958738;28;21029;-71
2024/01/02 07:10:28;;;;;;;6.20;0.60;;;6.90;99.90;;;;;;4964361;28;20450;-71
2024/01/02 07:12:56;;;;;;;7.00;0.60;;;7.00;99.90;;;;;;4952845;28;20543;-71
2024/01/02 07:15:24;;;;;;;5.87;0.43;;;6.90;99.90;;;;;;4966983;28;20448;-70
2024/01/02 07:17:53;;;;;;;6.10;0.60;;;7.00;99.90;;;;;;4965930;28;20969;-71
2024/01/02 07:20:21;;;;;;;5.90;0.50;;;7.00;99.90;;;;;;4967801;28;20645;-71
2024/01/02 07:22:50;;;;;;;6.83;0.67;;;6.90;99.90;;;;;;4960162;28;20848;-70
2024/01/02 07:25:18;;;;;;;6.17;0.50;;;7.00;99.90;;;;;;4959066;28;20529;-71
2024/01/02 07:27:46;;;;;;;6.00;0.50;;;7.00;99.90;;;;;;4960125;28;20466;-71
2024/01/02 07:30:15;;;;;;;6.07;0.60;;;7.00;99.90;;;;;;4952973;28;20466;-71
2024/01/02 07:32:43;;;;;;;5.97;0.50;;;7.10;99.90;;;;;;4957166;28;20463;-71
2024/01/02 07:35:12;;;;;;;6.20;0.50;;;7.10;99.90;;;;;;4951849;28;20461;-71
2024/01/02 07:37:40;;;;;;;6.40;0.60;;;7.10;99.90;;;;;;4966329;28;20514;-71
2024/01/02 07:40:09;;;;;;;6.90;1.07;;;7.20;99.90;;;;;;4969850;28;20465;-71
2024/01/02 07:42:37;;;;;;;6.70;0.53;;;7.20;99.90;;;;;;4979603;28;20463;-69
2024/01/02 07:45:06;;;;;;;6.20;0.60;;;7.20;99.90;;;;;;4960341;28;20453;-71
2024/01/02 07:47:34;;;;;;;6.27;0.57;;;7.20;99.90;;;;;;4953713;28;20486;-70
2024/01/02 07:50:04;;;;;;;6.27;0.50;;;7.30;99.90;;;;;;4955612;28;20635;-70
2024/01/02 07:52:34;;;;;;;5.90;0.40;;;7.30;99.90;;;;;;4956201;28;20480;-70
2024/01/02 07:55:02;;;;;;;6.40;0.90;;;7.30;99.90;;;;;;4961362;28;20838;-71
2024/01/02 07:57:30;;;;;;;5.80;0.40;;;7.30;99.90;;;;;;4956570;28;20467;-70
2024/01/02 07:59:58;;;;;;;6.57;0.53;;;7.30;99.90;;;;;;4961812;28;20570;-70
2024/01/02 08:02:26;;;;;;;6.07;0.40;;;7.30;99.90;;;;;;4958804;28;20538;-71
2024/01/02 08:04:54;;;;;;;6.50;0.50;;;7.50;99.90;;;;;;4966439;28;20501;-70
2024/01/02 08:07:22;;;;;;;6.50;0.50;;;7.60;99.90;;;;;;4968864;28;20482;-70
2024/01/02 08:09:51;;;;;;;6.27;0.50;;;7.60;99.90;;;;;;4975554;28;20546;-70
2024/01/02 08:12:19;;;;;;;6.00;0.33;;;7.70;99.90;;;;;;4955494;28;20570;-71
2024/01/02 08:14:47;;;;;;;5.97;0.50;;;7.70;99.90;;;;;;4959602;28;20814;-70
2024/01/02 08:17:20;;;;;;;5.73;0.30;;;7.80;99.90;;;;;;4954712;28;21053;-71
2024/01/02 08:19:48;;;;;;;5.97;0.67;;;7.90;99.90;;;;;;4957284;28;20480;-70
2024/01/02 08:22:16;;;;;;;6.40;0.40;;;7.90;99.90;;;;;;4972948;28;20506;-70
2024/01/02 08:24:44;;;;;;;5.83;0.43;;;7.90;99.90;;;;;;4962932;28;20546;-69
2024/01/02 08:27:13;;;;;;;5.90;0.40;;;8.00;99.90;;;;;;4963521;28;20538;-70
2024/01/02 08:29:41;;;;;;;6.37;0.30;;;8.10;99.90;;;;;;4954920;28;20531;-70
2024/01/02 08:32:13;;;;;;;6.57;0.50;;;8.20;99.90;;;;;;4975052;28;20549;-71
2024/01/02 08:34:41;;;;;;;5.60;0.30;;;8.30;99.90;;;;;;4962618;28;20479;-69
2024/01/02 08:37:09;;;;;;;5.83;0.37;;;8.40;99.90;;;;;;4967374;28;20462;-67
2024/01/02 08:39:37;;;;;;;5.83;0.30;;;8.40;99.90;;;;;;4958833;28;20464;-68
2024/01/02 08:42:06;;;;;;;5.70;0.40;;;8.50;99.90;;;;;;4957646;28;20521;-68
2024/01/02 08:44:35;;;;;;;6.30;0.47;;;8.60;99.90;;;;;;4954895;28;20472;-68
2024/01/02 08:47:03;;;;;;;5.73;0.30;;;8.70;99.90;;;;;;4953443;28;20481;-68
2024/01/02 08:49:31;;;;;;;7.90;0.60;;;8.70;99.90;;;;;;4960806;28;20562;-67
2024/01/02 08:51:59;;;;;;;6.00;0.50;;;8.80;99.90;;;;;;4962638;28;20531;-67
2024/01/02 08:54:27;;;;;;;5.83;0.40;;;8.80;99.90;;;;;;4959479;28;21002;-67
2024/01/02 08:56:55;;;;;;;5.70;0.30;;;8.90;99.90;;;;;;4960205;28;20448;-68
2024/01/02 08:59:23;;;;;;;5.80;0.30;;;8.90;99.90;;;;;;4961584;28;20478;-70
2024/01/02 09:01:53;;;;;;;6.73;0.93;;;9.00;99.90;;;;;;4958438;28;21258;-70
2024/01/02 09:04:20;;;;;;;6.73;0.40;;;9.10;99.90;;;;;;4955715;28;20473;-69
2024/01/02 09:06:48;;;;;;;5.93;0.50;;;9.10;99.90;;;;;;4964597;28;21158;-69
2024/01/02 09:09:16;;;;;;;5.90;0.40;;;9.20;99.90;;;;;;4958871;28;20576;-69
2024/01/02 09:11:44;;;;;;;6.40;0.40;;;9.30;99.90;;;;;;4961419;28;20478;-69
2024/01/02 09:14:12;;;;;;;5.70;0.20;;;9.30;99.90;;;;;;4973235;28;20462;-69
2024/01/02 09:16:42;;;;;;;5.90;0.40;;;9.40;99.90;;;;;;4961365;28;20540;-69
2024/01/02 09:19:12;;;;;;;6.53;0.40;;;9.40;99.90;;;;;;4961857;28;20890;-69
2024/01/02 09:21:42;;;;;;;6.30;0.57;;;9.40;99.90;;;;;;4957775;28;20853;-69
2024/01/02 09:24:10;;;;;;;5.70;0.40;;;9.40;99.90;;;;;;4963468;28;20453;-69
2024/01/02 09:26:41;;;;;;;5.60;0.30;;;9.50;99.90;;;;;;4954984;28;20448;-69
2024/01/02 09:29:09;;;;;;;5.70;0.30;;;9.60;99.90;;;;;;4952885;28;21023;-69
2024/01/02 09:31:37;;;;;;;5.87;0.37;;;9.60;99.90;;;;;;4963069;28;20543;-69
2024/01/02 09:34:05;;;;;;;6.00;0.50;;;9.70;99.90;;;;;;4962978;28;20479;-73
2024/01/02 09:36:34;;;;;;;6.40;0.40;;;9.70;99.90;;;;;;4952591;28;20445;-71
2024/01/02 09:39:02;;;;;;;6.07;0.50;;;9.70;99.90;;;;;;4983224;28;20443;-69
2024/01/02 09:41:43;;;;;;;5.90;0.40;;;9.80;99.90;;;;;;4963022;28;20522;-69
2024/01/02 09:44:29;;;;;;;6.20;0.57;;;9.70;99.90;;;;;;4965745;28;21171;-70
2024/01/02 09:47:09;;;;;;;5.70;0.37;;;9.80;99.90;;;;;;4955058;28;20571;-69
2024/01/02 09:49:51;;;;;;;7.17;0.60;;;9.80;99.90;;;;;;4974345;28;20441;-69
2024/01/02 09:52:45;;;;;;;6.20;0.50;;;9.90;99.90;;;;;;4957621;28;20829;-68
2024/01/02 09:55:22;;;;;;;6.00;0.50;;;9.90;99.90;;;;;;4961052;28;20537;-68
2024/01/02 09:58:04;;;;;;;6.70;1.03;;;9.90;99.90;;;;;;4966556;28;20636;-68
2024/01/02 10:00:41;;;;;;;5.73;0.30;;;10.00;99.90;;;;;;4964634;28;20453;-69
2024/01/02 10:03:34;;;;;;;5.67;0.30;;;9.90;99.90;;;;;;4973668;28;21103;-68
2024/01/02 10:06:19;;;;;;;5.70;0.30;;;10.00;99.90;;;;;;4977054;28;20436;-66
2024/01/02 10:09:04;;;;;;;5.90;0.53;;;10.00;99.90;;;;;;4969046;28;21180;-66
2024/01/02 10:11:43;;;;;;;5.73;0.30;;;10.00;99.90;;;;;;4960417;28;20814;-66
2024/01/02 10:14:20;;;;;;;5.80;0.40;;;10.10;99.90;;;;;;4960664;28;20513;-67
2024/01/02 10:16:57;;;;;;;5.60;0.30;;;10.10;99.90;;;;;;4965854;28;20550;-67
2024/01/02 10:19:32;;;;;;;5.80;0.40;;;10.10;99.90;;;;;;4972138;28;20446;-68
2024/01/02 10:22:11;;;;;;;6.00;0.50;;;10.20;99.90;;;;;;4982187;28;20521;-66
2024/01/02 10:24:51;;;;;;;5.83;0.40;;;10.20;99.90;;;;;;4968720;28;20446;-68
2024/01/02 10:27:27;;;;;;;7.10;0.50;;;10.30;99.90;;;;;;4965577;28;20506;-68
2024/01/02 10:30:06;;;;;;;5.90;0.50;;;10.30;99.90;;;;;;4967369;28;20505;-66
2024/01/02 10:32:44;;;;;;;6.20;0.50;;;10.30;99.90;;;;;;4972341;28;20775;-67
2024/01/02 10:35:15;;;;;;;5.80;0.40;;;10.30;99.90;;;;;;4969723;28;20471;-66
2024/01/02 10:37:54;;;;;;;5.90;0.40;;;10.40;99.90;;;;;;4969488;28;20449;-68
2024/01/02 10:40:25;;;;;;;7.07;0.30;;;10.40;99.90;;;;;;4962740;28;20510;-68
2024/01/02 10:43:05;;;;;;;5.70;0.30;;;10.40;99.90;;;;;;4965451;28;20983;-68
2024/01/02 10:45:38;;;;;;;6.23;0.53;;;10.40;99.90;;;;;;4972528;28;20530;-68
2024/01/02 10:48:21;;;;;;;5.67;0.20;;;10.50;99.90;;;;;;4964197;28;20486;-69
2024/01/02 10:50:58;;;;;;;5.77;0.40;;;10.50;99.90;;;;;;4961148;28;20810;-68
2024/01/02 10:53:37;;;;;;;5.90;0.40;;;10.50;99.90;;;;;;4970347;28;20471;-69
2024/01/02 10:56:14;;;;;;;5.67;0.40;;;10.50;99.90;;;;;;4977564;28;20531;-69
2024/01/02 10:58:49;;;;;;;5.77;0.40;;;10.60;99.90;;;;;;4970855;28;20434;-68
2024/01/02 11:01:22;;;;;;;5.70;0.30;;;10.60;99.90;;;;;;4968824;28;20571;-69
2024/01/02 11:03:57;;;;;;;5.57;0.30;;;10.60;99.90;;;;;;4965913;28;20458;-68
2024/01/02 11:06:35;;;;;;;5.67;0.40;;;10.70;99.90;;;;;;4957560;28;20439;-69
2024/01/02 11:09:08;;;;;;;5.70;0.30;;;10.70;99.90;;;;;;4961058;28;20502;-69
2024/01/02 11:11:40;;;;;;;5.80;0.40;;;10.70;99.90;;;;;;4959136;28;20481;-67
2024/01/02 11:14:15;;;;;;;5.67;0.30;;;10.70;99.90;;;;;;4959173;28;20513;-69
2024/01/02 11:16:46;;;;;;;5.70;0.30;;;10.70;99.90;;;;;;4956223;28;20513;-67
2024/01/02 11:19:16;;;;;;;5.87;0.40;;;10.80;99.90;;;;;;4960977;28;20453;-67
2024/01/02 11:21:49;;;;;;;5.80;0.33;;;10.80;99.90;;;;;;4959641;28;21415;-68
2024/01/02 11:24:23;;;;;;;5.63;0.40;;;10.90;99.90;;;;;;4959524;28;20474;-69
2024/01/02 11:26:55;;;;;;;6.73;0.40;;;10.90;99.90;;;;;;4960605;28;20433;-68
2024/01/02 11:29:25;;;;;;;5.73;0.33;;;10.90;99.90;;;;;;4962710;28;20480;-68
2024/01/02 11:31:57;;;;;;;5.73;0.40;;;10.90;99.90;;;;;;4956171;28;20517;-68
2024/01/02 11:34:44;;;;;;;5.67;0.30;;;10.90;99.90;;;;;;4958255;28;21037;-68
2024/01/02 11:37:24;;;;;;;5.70;0.40;;;10.90;99.90;;;;;;4959782;28;20439;-68
2024/01/02 11:40:01;;;;;;;5.77;0.40;;;10.90;99.90;;;;;;4967473;28;20435;-68
2024/01/02 11:42:44;;;;;;;6.40;0.43;;;10.90;99.90;;;;;;4965808;28;21020;-68
2024/01/02 11:45:16;;;;;;;6.30;0.90;;;11.00;99.90;;;;;;4962564;28;20536;-68
2024/01/02 11:47:45;;;;;;;5.70;0.40;;;11.00;99.90;;;;;;4962506;28;20441;-68
2024/01/02 11:50:16;;;;;;;6.77;0.50;;;11.00;99.90;;;;;;4968463;28;20455;-68
2024/01/02 11:53:07;;;;;;;5.77;0.40;;;11.10;99.90;;;;;;4970885;28;20467;-68
2024/01/02 11:55:45;;;;;;;5.80;0.40;;;11.10;99.90;;;;;;4968490;28;20468;-69
2024/01/02 11:58:21;;;;;;;5.90;0.30;;;11.20;99.90;;;;;;4978043;28;20423;-69
2024/01/02 12:01:04;;;;;;;5.67;0.33;;;11.20;99.90;;;;;;4972771;28;20439;-69
2024/01/02 12:03:43;;;;;;;5.80;0.40;;;11.20;99.90;;;;;;4967799;28;20446;-69
2024/01/02 12:06:19;;;;;;;5.87;0.40;;;11.20;99.90;;;;;;4962941;28;20486;-69
2024/01/02 12:08:52;;;;;;;5.87;0.40;;;11.20;99.90;;;;;;4965555;28;21035;-69
2024/01/02 12:11:22;;;;;;;5.80;0.30;;;11.20;99.90;;;;;;4960671;28;20482;-69
2024/01/02 12:14:05;;;;;;;5.70;0.40;;;11.20;99.90;;;;;;4963312;28;20452;-68
2024/01/02 12:16:36;;;;;;;6.00;0.40;;;11.20;99.90;;;;;;4966074;28;20448;-69
2024/01/02 12:19:06;;;;;;;5.67;0.30;;;11.20;99.90;;;;;;4954350;28;20440;-69
2024/01/02 12:21:39;;;;;;;5.87;0.50;;;11.20;99.90;;;;;;4964748;28;20477;-69
2024/01/02 12:24:14;;;;;;;5.83;0.43;;;11.20;99.90;;;;;;4961434;28;20538;-69
2024/01/02 12:26:44;;;;;;;5.90;0.50;;;11.20;99.90;;;;;;4963333;28;20499;-69
2024/01/02 12:29:23;;;;;;;6.20;0.70;;;11.20;99.90;;;;;;4964672;28;20526;-74
2024/01/02 12:31:58;;;;;;;7.90;0.57;;;11.10;99.90;;;;;;4966020;28;20498;-67
2024/01/02 12:34:31;;;;;;;6.10;0.57;;;11.10;99.90;;;;;;4966557;28;20511;-69
2024/01/02 12:37:09;;;;;;;6.20;0.50;;;11.10;99.90;;;;;;4972830;28;20448;-69
2024/01/02 12:39:40;;;;;;;6.20;0.60;;;11.00;99.90;;;;;;4962368;28;20440;-69
2024/01/02 12:42:13;;;;;;;6.50;0.53;;;11.00;99.90;;;;;;4964686;28;20550;-69
2024/01/02 12:44:45;;;;;;;6.00;0.50;;;11.00;99.90;;;;;;4965712;28;20440;-69
2024/01/02 12:47:19;;;;;;;6.87;0.80;;;10.90;99.90;;;;;;4952339;28;20982;-68
2024/01/02 12:49:54;;;;;;;6.20;0.47;;;10.90;99.90;;;;;;4961503;28;20486;-69
2024/01/02 12:52:28;;;;;;;6.00;0.43;;;10.90;99.90;;;;;;4973554;28;20454;-69
2024/01/02 12:54:59;;;;;;;6.10;0.60;;;10.90;99.90;;;;;;4960023;28;20460;-69
2024/01/02 12:57:33;;;;;;;6.23;0.50;;;10.90;99.90;;;;;;4959912;28;20458;-69
2024/01/02 13:00:02;;;;;;;6.47;0.70;;;10.90;99.90;;;;;;4967129;28;20468;-69
2024/01/02 13:02:35;;;;;;;6.30;0.60;;;10.90;99.90;;;;;;4961356;28;21056;-69
2024/01/02 13:05:05;;;;;;;6.40;0.60;;;10.90;99.90;;;;;;4961986;28;20446;-69
2024/01/02 13:07:36;;;;;;;6.30;0.57;;;10.90;99.90;;;;;;4964788;28;20462;-69
2024/01/02 13:10:05;;;;;;;5.80;0.50;;;10.80;99.90;;;;;;4963643;28;20480;-69
2024/01/02 13:12:36;;;;;;;5.90;0.50;;;10.90;99.90;;;;;;4966214;28;21222;-70